createdAt,value
2022-11-19T00:01:56.223Z,8.18
2022-11-19T00:05:01.832Z,7.07
2022-11-19T00:08:10.113Z,6.10
2022-11-19T00:11:38.865Z,6.30
2022-11-19T00:14:43.039Z,6.53
2022-11-19T00:17:54.394Z,6.50
2022-11-19T00:20:59.244Z,5.15
2022-11-19T00:24:10.582Z,6.38
2022-11-19T00:27:15.862Z,6.32
2022-11-19T00:30:46.331Z,5.88
2022-11-19T00:33:50.967Z,5.78
2022-11-19T00:36:56.861Z,5.47
2022-11-19T00:40:07.694Z,5.88
2022-11-19T00:43:25.297Z,7.25
2022-11-19T00:46:33.909Z,6.53
2022-11-19T00:49:42.125Z,6.35
2022-11-19T00:52:47.390Z,6.60
2022-11-19T00:55:55.364Z,6.43
2022-11-19T00:59:00.612Z,7.28
2022-11-19T01:02:06.384Z,5.53
2022-11-19T01:05:11.853Z,5.28
2022-11-19T01:08:19.265Z,3.38
2022-11-19T01:11:27.986Z,5.65
2022-11-19T01:14:33.555Z,3.22
2022-11-19T01:17:41.201Z,5.75
2022-11-19T01:20:46.836Z,5.10
2022-11-19T01:23:54.282Z,6.20
2022-11-19T01:27:03.764Z,4.93
2022-11-19T01:30:19.759Z,5.10
2022-11-19T01:33:25.726Z,5.30
2022-11-19T01:36:32.191Z,3.13
2022-11-19T01:39:40.406Z,5.03
2022-11-19T01:42:54.089Z,4.25
2022-11-19T01:46:00.837Z,4.03
2022-11-19T01:49:33.126Z,5.38
2022-11-19T01:55:47.071Z,4.57
2022-11-19T01:58:57.177Z,4.85
2022-11-19T02:02:03.990Z,4.13
2022-11-19T02:05:10.653Z,4.00
2022-11-19T02:08:31.828Z,3.80
2022-11-19T02:11:48.392Z,3.40
2022-11-19T02:15:11.503Z,3.50
2022-11-19T02:18:28.103Z,4.10
2022-11-19T02:21:35.697Z,3.90
2022-11-19T02:24:50.468Z,3.72
2022-11-19T02:28:11.564Z,4.05
2022-11-19T02:31:27.293Z,3.88
2022-11-19T02:34:38.267Z,4.28
2022-11-19T02:37:52.488Z,5.68
2022-11-19T02:40:59.914Z,5.50
2022-11-19T02:44:23.881Z,4.88
2022-11-19T02:50:43.881Z,6.88
2022-11-19T02:53:50.041Z,7.20
2022-11-19T02:56:58.921Z,6.78
2022-11-19T03:00:20.122Z,7.45
2022-11-19T03:03:38.959Z,7.05
2022-11-19T03:06:51.173Z,5.63
2022-11-19T03:10:02.813Z,6.70
2022-11-19T03:13:31.095Z,5.00
2022-11-19T03:16:42.194Z,5.97
2022-11-19T03:19:49.425Z,7.00
2022-11-19T03:22:59.425Z,6.18
2022-11-19T03:26:07.211Z,7.25
2022-11-19T03:29:14.304Z,7.15
2022-11-19T03:32:20.719Z,7.53
2022-11-19T03:35:33.344Z,5.90
2022-11-19T03:38:44.148Z,6.93
2022-11-19T03:41:59.077Z,6.07
2022-11-19T03:45:09.568Z,6.33
2022-11-19T03:48:18.855Z,6.20
2022-11-19T03:51:29.337Z,5.85
2022-11-19T03:54:37.596Z,2.78
2022-11-19T03:57:44.522Z,5.13
2022-11-19T04:00:52.693Z,5.57
2022-11-19T04:04:09.966Z,6.13
2022-11-19T04:07:22.780Z,5.20
2022-11-19T04:10:33.391Z,7.93
2022-11-19T04:13:40.142Z,5.38
2022-11-19T04:16:59.917Z,6.25
2022-11-19T04:20:12.430Z,5.90
2022-11-19T04:23:20.492Z,5.45
2022-11-19T04:26:31.812Z,4.88
2022-11-19T04:29:39.418Z,5.25
2022-11-19T04:32:45.270Z,6.30
2022-11-19T04:35:50.693Z,7.00
2022-11-19T04:38:56.526Z,8.02
2022-11-19T04:42:05.750Z,7.75
2022-11-19T04:45:13.991Z,7.25
2022-11-19T04:48:19.043Z,6.88
2022-11-19T04:51:26.861Z,5.50
2022-11-19T04:54:33.085Z,5.38
2022-11-19T04:57:42.689Z,5.47
2022-11-19T05:00:47.990Z,6.53
2022-11-19T05:03:55.834Z,5.88
2022-11-19T05:07:02.656Z,5.57
2022-11-19T05:10:09.884Z,7.30
2022-11-19T05:13:17.823Z,7.90
2022-11-19T05:16:25.641Z,6.88
2022-11-19T05:19:31.268Z,8.07
2022-11-19T05:22:37.058Z,8.02
2022-11-19T05:25:42.563Z,7.28
2022-11-19T05:28:51.040Z,7.68
2022-11-19T05:31:56.350Z,8.02
2022-11-19T05:35:02.145Z,8.52
2022-11-19T05:38:08.641Z,9.63
2022-11-19T05:41:19.629Z,10.35
2022-11-19T05:44:30.037Z,8.43
2022-11-19T05:47:36.606Z,13.13
2022-11-19T05:50:43.657Z,11.80
2022-11-19T05:53:49.089Z,14.15
2022-11-19T05:56:54.433Z,15.88
2022-11-19T06:00:03.353Z,15.77
2022-11-19T06:03:08.377Z,15.20
2022-11-19T06:06:13.765Z,12.02
2022-11-19T06:09:19.167Z,15.25
2022-11-19T06:12:27.179Z,14.93
2022-11-19T06:15:37.260Z,15.05
2022-11-19T06:18:43.299Z,14.43
2022-11-19T06:21:48.769Z,15.27
2022-11-19T06:24:56.616Z,14.75
2022-11-19T06:28:03.098Z,17.27
2022-11-19T06:31:12.121Z,16.27
2022-11-19T06:34:24.086Z,16.05
2022-11-19T06:37:31.600Z,15.95
2022-11-19T06:40:38.764Z,15.40
2022-11-19T06:43:46.361Z,15.13
2022-11-19T06:46:54.246Z,17.10
2022-11-19T06:50:02.628Z,17.75
2022-11-19T06:53:09.751Z,16.30
2022-11-19T06:56:15.231Z,14.77
2022-11-19T06:59:27.258Z,15.13
2022-11-19T07:02:36.383Z,13.02
2022-11-19T07:05:42.376Z,14.02
2022-11-19T07:08:48.122Z,14.80
2022-11-19T07:11:53.352Z,13.63
2022-11-19T07:15:04.807Z,14.57
2022-11-19T07:18:14.059Z,13.45
2022-11-19T07:21:20.783Z,13.20
2022-11-19T07:24:28.321Z,11.63
2022-11-19T07:27:34.301Z,12.68
2022-11-19T07:30:39.525Z,12.32
2022-11-19T07:33:48.782Z,9.73
2022-11-19T07:36:54.134Z,12.25
2022-11-19T07:40:00.934Z,11.00
2022-11-19T07:43:06.433Z,9.82
2022-11-19T07:46:14.084Z,11.85
2022-11-19T07:49:22.263Z,9.77
2022-11-19T07:52:28.233Z,10.15
2022-11-19T07:55:33.730Z,11.43
2022-11-19T07:58:41.885Z,11.05
2022-11-19T08:01:48.840Z,9.63
2022-11-19T08:04:58.879Z,10.20
2022-11-19T08:08:05.714Z,11.40
2022-11-19T08:11:15.855Z,10.57
2022-11-19T08:14:21.862Z,9.95
2022-11-19T08:17:41.518Z,11.30
2022-11-19T08:20:51.949Z,10.73
2022-11-19T08:24:01.048Z,12.57
2022-11-19T08:27:06.606Z,12.82
2022-11-19T08:30:12.754Z,11.45
2022-11-19T08:33:18.036Z,9.80
2022-11-19T08:36:26.914Z,9.65
2022-11-19T08:39:33.091Z,10.38
2022-11-19T08:42:50.902Z,9.80
2022-11-19T08:45:58.121Z,9.43
2022-11-19T08:49:05.174Z,7.70
2022-11-19T08:52:14.100Z,8.18
2022-11-19T08:55:19.752Z,9.85
2022-11-19T08:58:24.682Z,11.15
2022-11-19T09:01:29.844Z,9.75
2022-11-19T09:04:37.590Z,9.73
2022-11-19T09:07:51.546Z,8.90
2022-11-19T09:10:57.030Z,10.48
2022-11-19T09:14:03.101Z,9.65
2022-11-19T09:17:10.186Z,9.70
2022-11-19T09:20:18.237Z,10.18
2022-11-19T09:27:07.779Z,16.20
2022-11-19T09:30:14.275Z,12.20
2022-11-19T09:33:38.966Z,10.43
2022-11-19T09:36:48.071Z,11.02
2022-11-19T09:40:01.710Z,11.05
2022-11-19T09:46:45.969Z,10.88
2022-11-19T09:49:54.609Z,13.02
2022-11-19T09:53:02.896Z,12.40
2022-11-19T09:56:09.071Z,13.15
2022-11-19T09:59:19.545Z,12.65
2022-11-19T10:02:30.009Z,11.98
2022-11-19T10:05:43.258Z,13.43
2022-11-19T10:09:04.772Z,11.20
2022-11-19T10:12:20.156Z,12.27
2022-11-19T10:15:37.348Z,13.63
2022-11-19T10:18:53.926Z,14.65
2022-11-19T10:22:06.857Z,13.48
2022-11-19T10:25:18.750Z,13.68
2022-11-19T10:28:25.338Z,16.20
2022-11-19T10:31:38.286Z,16.02
2022-11-19T10:34:48.205Z,14.95
2022-11-19T10:37:59.846Z,14.93
2022-11-19T10:41:08.413Z,15.85
2022-11-19T10:44:39.928Z,16.42
2022-11-19T10:47:51.662Z,16.40
2022-11-19T10:51:02.824Z,15.18
2022-11-19T10:54:15.635Z,16.02
2022-11-19T10:57:22.171Z,16.48
2022-11-19T11:00:28.725Z,15.75
2022-11-19T11:03:38.034Z,16.63
2022-11-19T11:06:58.153Z,15.45
2022-11-19T11:10:26.055Z,15.75
2022-11-19T11:13:52.469Z,18.40
2022-11-19T11:20:28.830Z,15.75
2022-11-19T11:23:50.889Z,14.65
2022-11-19T11:27:16.293Z,17.27
2022-11-19T11:30:22.280Z,16.45
2022-11-19T11:33:39.344Z,15.18
2022-11-19T11:36:45.665Z,15.05
2022-11-19T11:40:01.529Z,15.07
2022-11-19T11:43:08.233Z,14.65
2022-11-19T11:46:16.189Z,14.48
2022-11-19T11:49:27.017Z,14.48
2022-11-19T11:52:39.220Z,15.23
2022-11-19T11:55:47.054Z,13.93
2022-11-19T11:58:55.916Z,15.43
2022-11-19T12:02:04.214Z,15.88
2022-11-19T12:05:13.884Z,15.73
2022-11-19T12:08:27.009Z,14.90
2022-11-19T12:11:52.153Z,12.32
2022-11-19T12:15:06.311Z,12.35
2022-11-19T12:18:19.004Z,11.43
2022-11-19T12:21:39.316Z,11.73
2022-11-19T12:24:55.450Z,10.60
2022-11-19T12:28:20.309Z,11.20
2022-11-19T12:31:34.370Z,11.73
2022-11-19T12:34:56.825Z,12.50
2022-11-19T12:38:11.547Z,10.63
2022-11-19T12:41:40.333Z,9.57
2022-11-19T12:44:52.934Z,9.75
2022-11-19T12:48:19.712Z,11.05
2022-11-19T12:51:37.284Z,10.70
2022-11-19T12:54:52.796Z,11.02
2022-11-19T12:58:02.184Z,9.48
2022-11-19T13:01:14.393Z,10.43
2022-11-19T13:04:27.003Z,13.65
2022-11-19T13:07:37.428Z,11.05
2022-11-19T13:10:45.657Z,11.30
2022-11-19T13:13:57.712Z,11.30
2022-11-19T13:17:10.395Z,10.18
2022-11-19T13:20:20.070Z,10.00
2022-11-19T13:23:28.406Z,9.70
2022-11-19T13:26:37.864Z,10.73
2022-11-19T13:29:47.767Z,9.40
2022-11-19T13:33:03.078Z,9.63
2022-11-19T13:36:14.454Z,10.32
2022-11-19T13:39:24.193Z,8.73
2022-11-19T13:43:17.095Z,8.43
2022-11-19T13:46:24.177Z,10.40
2022-11-19T13:49:46.116Z,9.82
2022-11-19T13:52:57.581Z,9.40
2022-11-19T13:56:05.402Z,8.95
2022-11-19T13:59:11.117Z,11.10
2022-11-19T14:02:28.676Z,10.90
2022-11-19T14:05:50.775Z,11.18
2022-11-19T14:09:08.675Z,8.90
2022-11-19T14:12:30.185Z,10.30
2022-11-19T14:15:58.256Z,10.70
2022-11-19T14:19:16.249Z,11.07
2022-11-19T14:22:57.212Z,10.82
2022-11-19T14:26:20.250Z,12.90
2022-11-19T14:29:49.489Z,10.23
2022-11-19T14:33:09.898Z,11.23
2022-11-19T14:36:35.961Z,10.52
2022-11-19T14:43:39.871Z,13.07
2022-11-19T14:46:53.278Z,11.48
2022-11-19T14:50:00.264Z,9.90
2022-11-19T14:53:22.036Z,9.38
2022-11-19T14:56:31.237Z,9.45
2022-11-19T14:59:39.627Z,11.02
2022-11-19T15:02:48.404Z,8.82
2022-11-19T15:05:55.858Z,7.80
2022-11-19T15:09:03.628Z,6.55
2022-11-19T15:12:13.512Z,7.25
2022-11-19T15:15:37.326Z,6.13
2022-11-19T15:18:58.727Z,5.97
2022-11-19T15:22:14.882Z,5.65
2022-11-19T15:25:31.714Z,5.43
2022-11-19T15:28:52.565Z,5.70
2022-11-19T15:32:22.342Z,5.93
2022-11-19T15:35:48.735Z,6.60
2022-11-19T15:39:00.806Z,5.63
2022-11-19T15:42:16.423Z,5.15
2022-11-19T15:45:29.688Z,6.70
2022-11-19T15:48:38.740Z,6.90
2022-11-19T15:52:18.253Z,6.22
2022-11-19T15:55:30.941Z,6.80
2022-11-19T15:58:42.380Z,7.20
2022-11-19T16:02:10.657Z,7.55
2022-11-19T16:05:22.584Z,7.60
2022-11-19T16:08:34.338Z,7.68
2022-11-19T16:11:54.671Z,7.82
2022-11-19T16:15:30.547Z,7.72
2022-11-19T16:18:49.197Z,8.05
2022-11-19T16:21:56.960Z,7.47
2022-11-19T16:25:05.674Z,7.53
2022-11-19T16:28:13.696Z,7.90
2022-11-19T16:31:22.544Z,8.07
2022-11-19T16:34:32.463Z,8.07
2022-11-19T16:37:40.726Z,8.52
2022-11-19T16:40:59.229Z,8.80
2022-11-19T16:44:09.366Z,15.05
2022-11-19T16:47:24.824Z,21.40
2022-11-19T16:50:36.279Z,11.40
2022-11-19T16:54:03.293Z,9.98
2022-11-19T16:57:27.123Z,10.13
2022-11-19T17:00:37.015Z,8.38
2022-11-19T17:03:44.159Z,9.02
2022-11-19T17:06:52.369Z,8.88
2022-11-19T17:10:26.913Z,7.80
2022-11-19T17:13:37.752Z,7.68
2022-11-19T17:16:47.810Z,7.13
2022-11-19T17:19:53.804Z,8.00
2022-11-19T17:23:02.898Z,8.00
2022-11-19T17:26:10.290Z,8.98
2022-11-19T17:29:23.329Z,7.47
2022-11-19T17:32:29.403Z,7.25
2022-11-19T17:35:40.780Z,8.27
2022-11-19T17:38:52.467Z,8.32
2022-11-19T17:42:13.357Z,7.65
2022-11-19T17:45:18.587Z,7.53
2022-11-19T17:48:35.762Z,7.53
2022-11-19T17:51:42.417Z,7.65
2022-11-19T17:54:54.689Z,8.45
2022-11-19T17:58:11.307Z,7.90
2022-11-19T18:01:21.759Z,7.22
2022-11-19T18:04:29.991Z,7.93
2022-11-19T18:07:37.719Z,7.28
2022-11-19T18:10:48.679Z,8.00
2022-11-19T18:13:58.875Z,8.25
2022-11-19T18:17:14.112Z,8.27
2022-11-19T18:20:27.297Z,7.97
2022-11-19T18:23:41.867Z,8.27
2022-11-19T18:26:58.490Z,8.05
2022-11-19T18:30:08.627Z,7.68
2022-11-19T18:33:21.345Z,7.90
2022-11-19T18:36:30.829Z,8.35
2022-11-19T18:39:40.000Z,8.73
2022-11-19T18:43:01.082Z,8.70
2022-11-19T18:46:09.756Z,8.45
2022-11-19T18:49:19.733Z,8.93
2022-11-19T18:52:32.781Z,7.93
2022-11-19T18:59:06.435Z,8.32
2022-11-19T19:02:15.475Z,7.70
2022-11-19T19:05:32.293Z,9.07
2022-11-19T19:08:46.575Z,8.23
2022-11-19T19:12:13.119Z,8.70
2022-11-19T19:15:23.581Z,9.27
2022-11-19T19:18:32.254Z,9.13
2022-11-19T19:21:37.866Z,10.30
2022-11-19T19:24:44.269Z,9.85
2022-11-19T19:27:53.400Z,9.23
2022-11-19T19:31:03.402Z,10.05
2022-11-19T19:34:11.644Z,8.85
2022-11-19T19:37:25.402Z,9.25
2022-11-19T19:43:47.840Z,10.20
2022-11-19T19:47:00.534Z,10.20
2022-11-19T19:50:08.986Z,10.40
2022-11-19T19:53:16.884Z,10.45
2022-11-19T19:56:27.780Z,9.70
2022-11-19T19:59:34.070Z,9.02
2022-11-19T20:02:43.523Z,9.65
2022-11-19T20:05:55.565Z,9.90
2022-11-19T20:09:07.905Z,10.32
2022-11-19T20:12:26.697Z,9.75
2022-11-19T20:15:38.613Z,10.07
2022-11-19T20:18:53.455Z,9.93
2022-11-19T20:22:05.421Z,11.35
2022-11-19T20:25:18.075Z,30.95
2022-11-19T20:28:27.915Z,19.33
2022-11-19T20:31:41.016Z,15.82
2022-11-19T20:34:54.248Z,13.68
2022-11-19T20:38:03.710Z,13.88
2022-11-19T20:41:35.180Z,13.82
2022-11-19T20:44:42.934Z,13.10
2022-11-19T20:47:53.832Z,12.75
2022-11-19T20:51:07.793Z,12.63
2022-11-19T20:54:23.380Z,12.68
2022-11-19T20:57:29.431Z,12.25
2022-11-19T21:00:38.052Z,12.05
2022-11-19T21:03:47.630Z,13.13
2022-11-19T21:07:05.759Z,10.38
2022-11-19T21:10:22.121Z,10.80
2022-11-19T21:13:37.789Z,11.13
2022-11-19T21:16:43.537Z,10.10
2022-11-19T21:19:54.598Z,9.30
2022-11-19T21:23:09.992Z,10.02
2022-11-19T21:26:21.365Z,9.20
2022-11-19T21:29:35.999Z,8.75
2022-11-19T21:32:48.017Z,8.48
2022-11-19T21:35:58.051Z,8.57
2022-11-19T21:39:08.799Z,7.82
2022-11-19T21:42:14.702Z,8.70
2022-11-19T21:45:28.070Z,9.27
2022-11-19T21:48:35.754Z,8.65
2022-11-19T21:51:45.199Z,8.52
2022-11-19T21:54:57.463Z,8.15
2022-11-19T21:58:08.849Z,9.13
2022-11-19T22:01:16.405Z,7.85
2022-11-19T22:04:28.396Z,8.27
2022-11-19T22:07:44.662Z,8.25
2022-11-19T22:11:28.984Z,8.52
2022-11-19T22:14:38.743Z,7.80
2022-11-19T22:17:51.317Z,8.63
2022-11-19T22:21:13.458Z,8.65
2022-11-19T22:24:19.960Z,7.13
2022-11-19T22:27:32.653Z,8.73
2022-11-19T22:30:57.098Z,8.00
2022-11-19T22:34:05.742Z,6.45
2022-11-19T22:37:14.517Z,8.40
2022-11-19T22:40:20.076Z,9.05
2022-11-19T22:43:47.834Z,7.68
2022-11-19T22:47:05.415Z,8.07
2022-11-19T22:50:17.147Z,8.38
2022-11-19T22:53:28.155Z,8.45
2022-11-19T22:56:39.566Z,7.90
2022-11-19T22:59:51.554Z,8.32
2022-11-19T23:03:04.476Z,8.55
2022-11-19T23:06:25.980Z,8.20
2022-11-19T23:09:42.410Z,10.60
2022-11-19T23:13:01.347Z,10.50
2022-11-19T23:16:17.781Z,8.95
2022-11-19T23:19:27.403Z,6.70
2022-11-19T23:22:35.521Z,8.07
2022-11-19T23:25:47.859Z,7.65
2022-11-19T23:28:58.904Z,7.55
2022-11-19T23:32:16.164Z,7.97
2022-11-19T23:35:25.225Z,7.72
2022-11-19T23:38:38.342Z,7.63
2022-11-19T23:41:47.426Z,7.40
2022-11-19T23:44:58.782Z,7.90
2022-11-19T23:48:20.235Z,7.90
2022-11-19T23:51:29.240Z,7.13
2022-11-19T23:54:36.846Z,7.05
2022-11-19T23:57:52.552Z,6.65
